Current Conditions
Partly Cloudy
Conditions



Pressure
1013.92 (hPa) - 29.94 (inHG)
Visibility

10.0 (km) - 6.2 (miles)
Temperature
19  °C
Temperature
10  °C
Dewpoint
56  %
 Humidity
Wind Speed
8  km/h
4  kts
5  mph
2.2  m/s
Wind Direction
N
45°
E
90°
135°
S
180°
225°
W
270°
315°
 90°

Due East
Airport Data
LELN
León Airport
Metar :LELN 140900Z 09004KT 9999 FEW040 19/10 Q1014
Sun 14th August 11:00 am
Raw Metar Info
Raw METAR is the most common format in the world for the transmission of observational weather data. It is highly standardized through the International Civil Aviation Organization (ICAO), which allows it to be understood throughout most of the world.
API Info
Data Provided by
https://www.checkwx.com/weather/LELN

Aviation Weather providing METAR, TAF, AIRMET, SIGMET and OUTLOOK Weather Reports
© Info
CSS/SVG/PHP scripts were developed by weather34 for use in the weather34 template © 2015-2022

Guide Info provided by Metar-Wikipedia